Time;durP1;ratioP1;P1;durP2;ratioP2;P2;SDS_P1;SDS_P2;PMS_P1;PMS_P2;Temp;Humidity;BMP_temperature;BMP_pressure;BME280_temperature;BME280_humidity;BME280_pressure;Samples;Min_cycle;Max_cycle;Signal;HPM_P1;HPM_P2
2021/05/13 00:02:21;;;;;;;;;;;;;;;15.88;99.31;99032.08;2658477;87;20167;-61
2021/05/13 00:06:22;;;;;;;;;;;;;;;15.85;99.63;99018.56;2672352;88;20175;-61
2021/05/13 00:10:25;;;;;;;;;;;;;;;15.82;99.67;99000.99;2672129;88;20169;-61
2021/05/13 00:14:27;;;;;;;;;;;;;;;15.82;99.77;99000.99;2672197;88;20174;-61
2021/05/13 00:18:29;;;;;;;;;;;;;;;15.82;99.89;98992.95;2657938;89;20272;-61
2021/05/13 00:22:30;;;;;;;;;;;;;;;15.83;99.84;98997.29;2700410;88;20808;-61
2021/05/13 00:26:40;;;;;;;;;;;;;;;15.81;99.84;98991.30;2707413;86;20179;-60
2021/05/13 00:30:41;;;;;;;;;;;;;;;15.78;99.94;98993.02;2664026;89;20201;-60
2021/05/13 00:34:43;;;;;;;;;;;;;;;15.83;99.89;98989.77;2661943;88;20212;-61
2021/05/13 00:38:44;;;;;;;;;;;;;;;15.82;99.89;99004.17;2661943;89;20239;-60
2021/05/13 00:42:46;;;;;;;;;;;;;;;15.84;99.56;99008.33;2662136;89;20594;-61
2021/05/13 00:46:49;;;;;;;;;;;;;;;15.89;99.52;99012.31;2707774;87;20202;-61
2021/05/13 00:50:51;;;;;;;;;;;;;;;15.90;99.50;99010.80;2664543;89;20193;-61
2021/05/13 00:54:53;;;;;;;;;;;;;;;15.91;99.36;99010.27;2662643;89;20167;-60
2021/05/13 00:58:57;;;;;;;;;;;;;;;15.89;99.28;99018.52;2707661;87;20211;-61
2021/05/13 01:03:00;;;;;;;;;;;;;;;15.91;99.09;99022.33;2664634;89;20181;-62
2021/05/13 01:07:01;;;;;;;;;;;;;;;15.92;99.24;99021.34;2662496;89;20172;-61
2021/05/13 01:11:03;;;;;;;;;;;;;;;15.90;99.04;99029.56;2699786;88;20204;-60
2021/05/13 01:15:08;;;;;;;;;;;;;;;15.92;98.85;99028.05;2683135;88;20151;-61
2021/05/13 01:19:10;;;;;;;;;;;;;;;15.93;98.74;99024.34;2681664;88;20163;-60
2021/05/13 01:23:13;;;;;;;;;;;;;;;15.93;98.53;99014.95;2683235;88;20172;-61
2021/05/13 01:27:17;;;;;;;;;;;;;;;15.93;98.19;99004.23;2683203;87;20176;-61
2021/05/13 01:31:19;;;;;;;;;;;;;;;15.91;98.40;98994.18;2639198;89;20197;-60
2021/05/13 01:35:20;;;;;;;;;;;;;;;15.87;98.56;98991.54;2653653;89;20559;-60
2021/05/13 01:39:21;;;;;;;;;;;;;;;15.87;98.63;98995.06;2657489;88;20194;-61
2021/05/13 01:43:25;;;;;;;;;;;;;;;15.90;98.80;98991.18;2632670;88;20193;-59
2021/05/13 01:47:27;;;;;;;;;;;;;;;15.93;98.60;98972.05;2727947;87;20205;-60
2021/05/13 01:51:28;;;;;;;;;;;;;;;15.95;98.37;98977.52;2705483;87;20169;-59
2021/05/13 01:55:30;;;;;;;;;;;;;;;15.98;98.36;98974.97;2727977;87;20185;-60
2021/05/13 01:59:32;;;;;;;;;;;;;;;16.03;98.26;98977.89;2727691;87;20193;-61
2021/05/13 02:03:37;;;;;;;;;;;;;;;16.06;98.01;98982.87;2705383;87;20201;-60
2021/05/13 02:07:40;;;;;;;;;;;;;;;16.11;98.04;98985.82;2728045;87;20217;-61
2021/05/13 02:11:42;;;;;;;;;;;;;;;16.15;97.95;98994.81;2727950;87;20196;-60
2021/05/13 02:15:43;;;;;;;;;;;;;;;16.25;97.86;98997.48;2727970;86;20185;-61
2021/05/13 02:19:45;;;;;;;;;;;;;;;16.35;97.24;98989.59;2728401;87;20161;-59
2021/05/13 02:23:46;;;;;;;;;;;;;;;16.38;96.84;98980.64;2728171;87;20169;-61
2021/05/13 02:27:48;;;;;;;;;;;;;;;16.39;96.65;98970.72;2728200;86;20177;-60
2021/05/13 02:31:50;;;;;;;;;;;;;;;16.39;96.47;98970.23;2728950;87;20165;-61
2021/05/13 02:35:51;;;;;;;;;;;;;;;16.39;96.57;98954.13;2734681;87;20200;-62
2021/05/13 02:39:53;;;;;;;;;;;;;;;16.23;96.28;98927.59;2734389;86;20196;-62
2021/05/13 02:43:54;;;;;;;;;;;;;;;16.01;97.21;98903.52;2734544;87;20220;-61
2021/05/13 02:47:58;;;;;;;;;;;;;;;15.85;98.10;98898.72;2734636;87;20241;-61
2021/05/13 02:51:59;;;;;;;;;;;;;;;15.76;98.52;98894.53;2734664;87;20188;-61
2021/05/13 02:56:02;;;;;;;;;;;;;;;15.71;98.86;98894.27;2734054;86;20168;-61
2021/05/13 03:04:19;;;;;;;;;;;;;;;15.67;99.51;98891.66;2734186;87;20192;-61
2021/05/13 03:08:20;;;;;;;;;;;;;;;15.67;99.56;98905.06;2734758;87;20540;-61
2021/05/13 03:12:22;;;;;;;;;;;;;;;15.66;99.48;98910.11;2734130;86;20193;-61
2021/05/13 03:16:24;;;;;;;;;;;;;;;15.64;99.40;98904.11;2734549;87;20566;-62
2021/05/13 03:20:33;;;;;;;;;;;;;;;15.67;99.47;98908.59;2734445;87;20196;-61
2021/05/13 03:28:49;;;;;;;;;;;;;;;15.73;99.53;98894.92;2734639;87;20168;-62
2021/05/13 03:32:52;;;;;;;;;;;;;;;15.69;99.08;98907.88;2731568;87;20233;-62
2021/05/13 03:36:53;;;;;;;;;;;;;;;15.67;99.30;98910.42;2724101;87;20233;-62
2021/05/13 03:40:55;;;;;;;;;;;;;;;15.63;99.26;98903.80;2723706;87;20177;-61
2021/05/13 03:44:58;;;;;;;;;;;;;;;15.64;99.31;98917.52;2723933;87;20181;-62
2021/05/13 03:49:00;;;;;;;;;;;;;;;15.68;99.74;98926.82;2723789;87;20217;-62
2021/05/13 03:53:02;;;;;;;;;;;;;;;15.69;99.57;98933.84;2723547;86;20191;-62
2021/05/13 03:57:06;;;;;;;;;;;;;;;15.71;99.29;98937.16;2722984;87;20201;-62
2021/05/13 04:01:12;;;;;;;;;;;;;;;15.68;99.27;98930.34;2707907;87;20190;-62
2021/05/13 04:05:13;;;;;;;;;;;;;;;15.66;99.17;98925.69;2724006;87;20569;-62
2021/05/13 04:09:17;;;;;;;;;;;;;;;15.70;99.48;98932.81;2723952;87;20180;-61
2021/05/13 04:13:18;;;;;;;;;;;;;;;15.73;99.30;98939.16;2724398;87;20177;-62
2021/05/13 04:17:20;;;;;;;;;;;;;;;15.76;99.26;98941.95;2724291;87;20236;-62
2021/05/13 04:21:21;;;;;;;;;;;;;;;15.80;99.24;98936.02;2724495;87;20221;-62
2021/05/13 04:25:23;;;;;;;;;;;;;;;15.83;98.81;98935.63;2724410;87;20210;-61
2021/05/13 04:29:24;;;;;;;;;;;;;;;15.83;98.60;98932.94;2724083;86;20213;-62
2021/05/13 04:33:26;;;;;;;;;;;;;;;15.81;98.93;98932.80;2724123;87;20169;-62
2021/05/13 04:37:28;;;;;;;;;;;;;;;15.81;99.02;98923.42;2723911;87;20217;-61
2021/05/13 04:41:33;;;;;;;;;;;;;;;15.90;99.36;98921.46;2723904;86;20201;-62
2021/05/13 04:45:37;;;;;;;;;;;;;;;15.88;99.11;98911.41;2721769;87;20185;-61
2021/05/13 04:49:38;;;;;;;;;;;;;;;15.87;98.74;98908.42;2723742;87;20157;-61
2021/05/13 04:53:39;;;;;;;;;;;;;;;15.84;98.94;98898.41;2723862;86;20197;-61
2021/05/13 04:57:42;;;;;;;;;;;;;;;15.85;98.84;98887.18;2722151;87;20197;-60
2021/05/13 05:01:43;;;;;;;;;;;;;;;15.81;98.86;98886.73;2723375;86;20193;-61
2021/05/13 05:05:45;;;;;;;;;;;;;;;15.79;98.90;98878.06;2724043;86;20181;-61
2021/05/13 05:09:47;;;;;;;;;;;;;;;15.78;99.13;98865.67;2721998;87;20181;-61
2021/05/13 05:13:49;;;;;;;;;;;;;;;15.68;99.19;98862.49;2722122;87;20185;-61
2021/05/13 05:17:51;;;;;;;;;;;;;;;15.61;99.65;98857.59;2723786;86;20150;-62
2021/05/13 05:21:52;;;;;;;;;;;;;;;15.62;100.00;98851.22;2723987;87;20170;-61
2021/05/13 05:25:56;;;;;;;;;;;;;;;15.63;99.93;98855.05;2723909;86;20188;-61
2021/05/13 05:29:57;;;;;;;;;;;;;;;15.63;100.00;98846.17;2724273;87;20165;-62
2021/05/13 05:33:59;;;;;;;;;;;;;;;15.60;99.98;98843.88;2708411;85;20165;-61
2021/05/13 05:38:01;;;;;;;;;;;;;;;15.59;100.00;98840.89;2686235;88;20151;-61
2021/05/13 05:42:03;;;;;;;;;;;;;;;15.61;100.00;98839.66;2686306;88;20186;-61
2021/05/13 05:46:05;;;;;;;;;;;;;;;15.65;100.00;98838.27;2687813;87;20157;-61
2021/05/13 05:50:07;;;;;;;;;;;;;;;15.63;99.78;98832.77;2680632;88;20176;-61
2021/05/13 05:54:09;;;;;;;;;;;;;;;15.66;99.99;98837.73;2629677;89;20189;-62
2021/05/13 05:58:11;;;;;;;;;;;;;;;15.68;99.92;98837.03;2629686;90;20212;-62
2021/05/13 06:02:12;;;;;;;;;;;;;;;15.69;99.70;98854.27;2629525;89;20168;-62
2021/05/13 06:06:13;;;;;;;;;;;;;;;15.72;99.77;98857.05;2629357;90;20347;-61
2021/05/13 06:10:15;;;;;;;;;;;;;;;15.78;99.53;98844.23;2629626;90;20168;-61
2021/05/13 06:14:18;;;;;;;;;;;;;;;15.70;98.82;98836.31;2669881;88;20272;-61
2021/05/13 06:18:19;;;;;;;;;;;;;;;15.60;98.93;98830.48;2687761;87;20174;-61
2021/05/13 06:22:21;;;;;;;;;;;;;;;15.54;99.44;98824.88;2687565;88;20249;-60
2021/05/13 06:26:32;;;;;;;;;;;;;;;15.52;99.64;98823.41;2685806;88;20181;-60
2021/05/13 06:30:34;;;;;;;;;;;;;;;15.53;99.83;98824.57;2687985;87;20205;-60
2021/05/13 06:34:35;;;;;;;;;;;;;;;15.53;99.98;98819.20;2708684;87;20287;-60
2021/05/13 06:38:37;;;;;;;;;;;;;;;15.58;99.94;98848.61;2735290;86;20193;-61
2021/05/13 06:42:38;;;;;;;;;;;;;;;15.63;100.00;98830.94;2734812;87;20192;-60
2021/05/13 06:46:41;;;;;;;;;;;;;;;15.73;100.00;98834.61;2735121;87;20513;-60
2021/05/13 06:50:43;;;;;;;;;;;;;;;15.83;100.00;98823.02;2735112;87;20181;-61
2021/05/13 06:54:45;;;;;;;;;;;;;;;15.91;99.65;98831.95;2734945;87;20803;-61
2021/05/13 06:58:47;;;;;;;;;;;;;;;15.94;99.67;98829.72;2719994;87;20161;-60
2021/05/13 07:02:48;;;;;;;;;;;;;;;15.97;98.97;98827.16;2735265;87;20317;-61
2021/05/13 07:06:51;;;;;;;;;;;;;;;15.97;99.07;98819.13;2734046;87;20192;-61
2021/05/13 07:10:52;;;;;;;;;;;;;;;15.99;98.87;98817.06;2733319;86;20163;-62
2021/05/13 07:14:54;;;;;;;;;;;;;;;15.96;98.47;98813.44;2742429;86;20214;-61
2021/05/13 07:18:56;;;;;;;;;;;;;;;15.89;98.47;98820.59;2742355;86;20549;-62
2021/05/13 07:22:57;;;;;;;;;;;;;;;15.87;98.50;98825.30;2742529;86;20190;-61
2021/05/13 07:26:59;;;;;;;;;;;;;;;15.83;98.34;98811.48;2742746;85;20507;-61
2021/05/13 07:31:00;;;;;;;;;;;;;;;15.78;98.66;98813.90;2742614;86;20336;-61
2021/05/13 07:35:01;;;;;;;;;;;;;;;15.81;99.06;98813.00;2726497;86;20191;-62
2021/05/13 07:39:05;;;;;;;;;;;;;;;15.82;98.96;98822.70;2709804;87;20195;-61
2021/05/13 07:43:06;;;;;;;;;;;;;;;15.84;98.64;98837.27;2709804;87;20187;-61
2021/05/13 07:47:10;;;;;;;;;;;;;;;15.93;98.90;98821.89;2709711;87;20569;-61
2021/05/13 07:51:10;;;;;;;;;;;;;;;15.94;98.02;98831.59;2709874;87;20512;-62
2021/05/13 07:55:13;;;;;;;;;;;;;;;16.01;98.65;98829.77;2709737;87;20156;-61
2021/05/13 07:59:14;;;;;;;;;;;;;;;16.04;97.53;98832.05;2709972;87;20209;-61
2021/05/13 08:03:16;;;;;;;;;;;;;;;16.13;98.01;98839.42;2709828;87;20195;-61
2021/05/13 08:07:20;;;;;;;;;;;;;;;16.24;97.45;98837.53;2709569;88;20187;-60
2021/05/13 08:11:20;;;;;;;;;;;;;;;16.36;96.94;98843.16;2709613;87;20211;-60
2021/05/13 08:15:22;;;;;;;;;;;;;;;16.46;96.42;98843.30;2709659;87;20535;-60
2021/05/13 08:19:24;;;;;;;;;;;;;;;16.55;95.59;98840.77;2709611;88;20195;-60
2021/05/13 08:23:25;;;;;;;;;;;;;;;16.58;95.04;98841.70;2709753;87;20231;-60
2021/05/13 08:27:27;;;;;;;;;;;;;;;16.65;94.76;98839.86;2709620;86;20492;-60
2021/05/13 08:31:29;;;;;;;;;;;;;;;16.67;93.72;98841.83;2709735;87;20219;-60
2021/05/13 08:35:30;;;;;;;;;;;;;;;16.60;93.10;98842.33;2726885;86;20199;-60
2021/05/13 08:39:32;;;;;;;;;;;;;;;16.58;93.12;98844.39;2742569;86;20179;-60
2021/05/13 08:43:33;;;;;;;;;;;;;;;16.51;93.04;98844.89;2742760;86;20174;-60
2021/05/13 08:47:41;;;;;;;;;;;;;;;16.47;92.53;98854.34;2743017;86;20198;-60
2021/05/13 08:51:43;;;;;;;;;;;;;;;16.38;93.07;98851.00;2742906;86;20202;-60
2021/05/13 08:55:44;;;;;;;;;;;;;;;16.40;93.48;98841.73;2743107;86;20577;-60
2021/05/13 08:59:47;;;;;;;;;;;;;;;16.46;93.83;98841.95;2743031;86;20179;-61
2021/05/13 09:03:50;;;;;;;;;;;;;;;16.48;93.05;98846.60;2733264;85;20189;-60
2021/05/13 09:07:54;;;;;;;;;;;;;;;16.30;92.70;98848.49;2733911;85;20145;-60
2021/05/13 09:12:01;;;;;;;;;;;;;;;16.24;93.41;98844.24;2732785;87;20188;-60
2021/05/13 09:16:23;;;;;;;;;;;;;;;16.22;93.19;98846.80;2718220;87;20217;-61
2021/05/13 09:20:27;;;;;;;;;;;;;;;16.07;92.71;98844.25;2733374;85;20145;-60
2021/05/13 09:24:50;;;;;;;;;;;;;;;15.91;93.26;98844.86;2734301;87;20176;-60
2021/05/13 09:29:12;;;;;;;;;;;;;;;15.90;93.77;98843.20;2734086;85;20216;-62
2021/05/13 09:33:17;;;;;;;;;;;;;;;15.87;93.69;98845.41;2729479;85;20177;-60
2021/05/13 09:37:19;;;;;;;;;;;;;;;15.81;93.38;98849.20;2732408;85;20201;-60
2021/05/13 09:41:28;;;;;;;;;;;;;;;15.78;93.68;98844.23;2732665;87;20536;-61
2021/05/13 09:45:42;;;;;;;;;;;;;;;15.78;93.87;98846.06;2732117;87;20189;-61
2021/05/13 09:50:05;;;;;;;;;;;;;;;15.82;94.37;98842.81;2732943;85;20185;-60
2021/05/13 09:54:18;;;;;;;;;;;;;;;15.87;94.20;98836.02;2732444;87;20224;-61
2021/05/13 09:58:23;;;;;;;;;;;;;;;15.85;94.30;98835.71;2732585;87;20200;-61
2021/05/13 10:02:24;;;;;;;;;;;;;;;15.91;94.08;98835.48;2733061;87;20347;-61
2021/05/13 10:06:26;;;;;;;;;;;;;;;15.91;93.69;98832.80;2733268;85;20514;-61
2021/05/13 10:10:29;;;;;;;;;;;;;;;15.89;93.59;98836.69;2733967;85;20176;-61
2021/05/13 10:14:30;;;;;;;;;;;;;;;15.87;93.66;98837.37;2733366;87;20188;-62
2021/05/13 10:18:40;;;;;;;;;;;;;;;15.89;93.90;98844.73;2733767;85;20237;-61
2021/05/13 10:22:45;;;;;;;;;;;;;;;15.87;92.77;98848.09;2730308;85;20549;-61
2021/05/13 10:26:50;;;;;;;;;;;;;;;15.84;93.12;98859.52;2733820;85;20173;-62
2021/05/13 10:31:04;;;;;;;;;;;;;;;15.83;92.66;98849.02;2733368;85;20221;-62
2021/05/13 10:35:12;;;;;;;;;;;;;;;15.94;92.99;98853.04;2732917;85;20164;-61
2021/05/13 10:39:13;;;;;;;;;;;;;;;15.96;91.78;98855.01;2733598;85;20498;-61
2021/05/13 10:43:15;;;;;;;;;;;;;;;16.01;92.26;98856.58;2737687;86;20186;-61
2021/05/13 10:47:20;;;;;;;;;;;;;;;16.09;91.60;98858.28;2742299;85;21064;-61
2021/05/13 10:51:25;;;;;;;;;;;;;;;16.22;91.08;98846.80;2733192;86;20525;-61
2021/05/13 10:55:41;;;;;;;;;;;;;;;16.31;90.66;98850.15;2729573;85;20226;-61
2021/05/13 11:00:08;;;;;;;;;;;;;;;16.34;90.97;98841.20;2737879;85;20161;-61
2021/05/13 11:04:30;;;;;;;;;;;;;;;16.32;90.56;98833.86;2729457;85;20534;-61
2021/05/13 11:08:35;;;;;;;;;;;;;;;16.35;90.12;98840.17;2728269;85;20205;-61
2021/05/13 11:12:41;;;;;;;;;;;;;;;16.36;90.16;98835.11;2712818;85;20565;-61
2021/05/13 11:16:52;;;;;;;;;;;;;;;16.39;90.64;98832.52;2723979;87;20200;-62
2021/05/13 11:20:53;;;;;;;;;;;;;;;16.24;90.36;98828.14;2707015;85;20545;-63
2021/05/13 11:24:54;;;;;;;;;;;;;;;16.20;90.47;98829.55;2727232;85;20206;-61
2021/05/13 11:28:56;;;;;;;;;;;;;;;16.13;91.46;98826.01;2719413;85;20336;-62
2021/05/13 11:32:59;;;;;;;;;;;;;;;16.03;91.65;98818.84;2728197;87;20201;-62
2021/05/13 11:37:01;;;;;;;;;;;;;;;15.94;92.26;98812.81;2718540;87;20189;-61
2021/05/13 11:41:04;;;;;;;;;;;;;;;15.87;92.72;98815.91;2722638;87;20153;-62
2021/05/13 11:45:16;;;;;;;;;;;;;;;15.77;93.40;98818.95;2722772;87;20220;-61
2021/05/13 11:49:17;;;;;;;;;;;;;;;15.77;94.09;98817.61;2712473;86;20185;-62
2021/05/13 11:53:19;;;;;;;;;;;;;;;15.86;94.95;98811.08;2719875;85;20201;-61
2021/05/13 11:57:21;;;;;;;;;;;;;;;16.01;94.53;98815.52;2728720;85;20177;-62
2021/05/13 12:01:30;;;;;;;;;;;;;;;16.10;93.74;98812.47;2732894;85;20216;-62
2021/05/13 12:05:34;;;;;;;;;;;;;;;16.12;93.98;98806.42;2733330;85;20655;-62
2021/05/13 12:09:35;;;;;;;;;;;;;;;16.09;93.17;98812.69;2734537;85;20207;-62
2021/05/13 12:13:36;;;;;;;;;;;;;;;16.07;93.50;98809.38;2735652;85;20208;-62
2021/05/13 12:17:38;;;;;;;;;;;;;;;16.02;93.38;98813.17;2734223;86;20169;-62
2021/05/13 12:21:40;;;;;;;;;;;;;;;15.94;93.12;98812.81;2732639;87;20172;-62
2021/05/13 12:25:44;;;;;;;;;;;;;;;15.88;93.27;98810.87;2732591;87;20185;-62
2021/05/13 12:29:48;;;;;;;;;;;;;;;15.98;94.25;98818.09;2732894;87;20177;-62
2021/05/13 12:33:49;;;;;;;;;;;;;;;16.17;93.70;98815.19;2733127;87;20201;-61
2021/05/13 12:37:51;;;;;;;;;;;;;;;16.45;94.10;98806.25;2727817;87;20197;-62
2021/05/13 12:41:52;;;;;;;;;;;;;;;16.61;92.41;98810.43;2726447;87;20217;-62
2021/05/13 12:45:54;;;;;;;;;;;;;;;16.61;91.41;98805.06;2726645;87;20161;-62
2021/05/13 12:50:00;;;;;;;;;;;;;;;16.47;90.28;98811.41;2725847;87;20217;-61
2021/05/13 12:54:03;;;;;;;;;;;;;;;16.28;90.68;98811.96;2725524;87;20510;-61
2021/05/13 12:58:12;;;;;;;;;;;;;;;16.00;91.40;98812.02;2725801;87;20204;-61
2021/05/13 13:02:22;;;;;;;;;;;;;;;15.92;92.85;98806.83;2724805;87;20153;-61
2021/05/13 13:06:23;;;;;;;;;;;;;;;15.98;93.19;98814.07;2725910;87;20546;-61
2021/05/13 13:10:31;;;;;;;;;;;;;;;16.16;92.99;98808.17;2726221;87;20197;-62
2021/05/13 13:14:39;;;;;;;;;;;;;;;16.39;92.66;98805.69;2725018;87;20229;-62
2021/05/13 13:18:40;;;;;;;;;;;;;;;16.49;91.11;98802.13;2725926;87;21003;-61
2021/05/13 13:22:42;;;;;;;;;;;;;;;16.51;90.66;98800.08;2725916;87;20173;-61
2021/05/13 13:26:47;;;;;;;;;;;;;;;16.72;90.32;98805.52;2727629;87;20185;-61
2021/05/13 13:30:56;;;;;;;;;;;;;;;16.92;89.86;98803.70;2728319;86;20189;-61
2021/05/13 13:35:05;;;;;;;;;;;;;;;17.02;89.01;98797.97;2728221;86;20201;-62
2021/05/13 13:39:01;;;;;;;;;;;;;;;17.05;88.26;98801.59;2727691;87;20173;-61
2021/05/13 13:43:02;;;;;;;;;;;;;;;16.98;87.62;98802.91;2728401;87;20181;-62
2021/05/13 13:47:04;;;;;;;;;;;;;;;17.09;87.76;98797.95;2728309;86;20169;-61
2021/05/13 13:51:07;;;;;;;;;;;;;;;17.22;90.11;98785.88;2728723;86;20173;-62
2021/05/13 13:55:10;;;;;;;;;;;;;;;17.43;87.71;98786.70;2705784;87;20157;-61
2021/05/13 13:59:12;;;;;;;;;;;;;;;17.68;89.11;98789.59;2728299;87;20173;-62
2021/05/13 14:03:14;;;;;;;;;;;;;;;17.72;85.65;98794.03;2728697;86;20537;-61
2021/05/13 14:07:15;;;;;;;;;;;;;;;17.71;87.14;98796.42;2728956;86;20201;-62
2021/05/13 14:11:16;;;;;;;;;;;;;;;17.59;85.75;98790.02;2729175;87;20567;-62
2021/05/13 14:15:18;;;;;;;;;;;;;;;17.32;86.52;98801.59;2729221;86;20177;-62
2021/05/13 14:19:19;;;;;;;;;;;;;;;17.13;87.65;98788.48;2728974;86;20185;-62
2021/05/13 14:23:21;;;;;;;;;;;;;;;17.08;89.47;98778.84;2728700;86;20181;-62
2021/05/13 14:27:22;;;;;;;;;;;;;;;17.16;88.97;98773.28;2728834;86;20197;-62
2021/05/13 14:31:24;;;;;;;;;;;;;;;17.07;88.27;98776.69;2728760;86;20205;-62
2021/05/13 14:35:26;;;;;;;;;;;;;;;16.91;88.84;98785.94;2728524;86;20157;-62
2021/05/13 14:39:28;;;;;;;;;;;;;;;17.06;91.94;98785.78;2724775;86;20197;-62
2021/05/13 14:43:29;;;;;;;;;;;;;;;17.38;89.71;98785.16;2724706;87;20172;-62
2021/05/13 14:47:31;;;;;;;;;;;;;;;17.51;88.89;98782.48;2724835;87;20190;-62
2021/05/13 14:51:33;;;;;;;;;;;;;;;17.42;87.95;98774.30;2724562;87;20166;-62
2021/05/13 14:55:34;;;;;;;;;;;;;;;17.26;87.45;98783.09;2724286;87;20198;-62
2021/05/13 14:59:36;;;;;;;;;;;;;;;17.42;90.10;98775.65;2724379;87;20170;-62
2021/05/13 15:03:37;;;;;;;;;;;;;;;17.43;86.81;98777.83;2724572;87;20189;-62
2021/05/13 15:07:39;;;;;;;;;;;;;;;17.18;87.28;98769.03;2724219;87;20205;-62
2021/05/13 15:11:40;;;;;;;;;;;;;;;16.80;88.92;98782.50;2724305;87;20240;-62
2021/05/13 15:15:41;;;;;;;;;;;;;;;16.55;89.76;98770.98;2724246;87;20217;-62
2021/05/13 15:19:43;;;;;;;;;;;;;;;16.28;90.76;98761.48;2723525;87;20545;-62
2021/05/13 15:23:44;;;;;;;;;;;;;;;16.17;92.34;98769.59;2723431;87;20206;-62
2021/05/13 15:27:45;;;;;;;;;;;;;;;16.14;92.19;98771.33;2723744;87;20169;-61
2021/05/13 15:31:47;;;;;;;;;;;;;;;16.34;92.86;98779.98;2723832;87;20174;-62
2021/05/13 15:35:48;;;;;;;;;;;;;;;16.37;91.76;98753.59;2723621;87;20497;-62
2021/05/13 15:39:51;;;;;;;;;;;;;;;16.28;91.24;98762.33;2723658;87;20193;-62
2021/05/13 15:43:52;;;;;;;;;;;;;;;16.20;91.85;98763.01;2723987;87;20529;-62
2021/05/13 15:47:53;;;;;;;;;;;;;;;16.04;91.92;98760.97;2723890;87;20177;-62
2021/05/13 15:51:55;;;;;;;;;;;;;;;15.94;92.37;98751.14;2723627;86;20562;-61
2021/05/13 15:55:56;;;;;;;;;;;;;;;15.91;92.95;98754.19;2723467;86;20197;-62
2021/05/13 15:59:58;;;;;;;;;;;;;;;15.84;93.50;98752.28;2722810;87;21161;-62
2021/05/13 16:03:59;;;;;;;;;;;;;;;15.75;93.33;98745.44;2723193;87;20204;-62
2021/05/13 16:08:01;;;;;;;;;;;;;;;15.59;94.03;98743.06;2723557;87;20181;-62
2021/05/13 16:12:07;;;;;;;;;;;;;;;15.58;94.86;98744.09;2707163;87;20534;-64
2021/05/13 16:16:07;;;;;;;;;;;;;;;15.58;94.69;98741.41;2706333;87;20542;-64
2021/05/13 16:20:09;;;;;;;;;;;;;;;15.52;94.04;98737.13;2706696;88;20194;-62
2021/05/13 16:24:12;;;;;;;;;;;;;;;15.49;94.15;98734.84;2706442;88;20186;-63
2021/05/13 16:28:13;;;;;;;;;;;;;;;15.54;94.49;98726.23;2706428;86;20189;-63
2021/05/13 16:32:14;;;;;;;;;;;;;;;15.62;94.12;98730.08;2710201;86;20199;-62
2021/05/13 16:36:17;;;;;;;;;;;;;;;15.64;93.43;98741.45;2726813;86;20165;-62
2021/05/13 16:40:18;;;;;;;;;;;;;;;15.70;93.54;98745.18;2703018;87;20881;-62
2021/05/13 16:44:20;;;;;;;;;;;;;;;15.78;93.08;98752.23;2687123;87;20158;-62
2021/05/13 16:48:22;;;;;;;;;;;;;;;15.82;92.97;98756.17;2686838;87;20506;-66
2021/05/13 16:52:24;;;;;;;;;;;;;;;15.78;92.06;98757.60;2719068;86;20165;-66
2021/05/13 16:56:25;;;;;;;;;;;;;;;15.55;91.99;98766.24;2722332;86;20173;-66
2021/05/13 17:00:26;;;;;;;;;;;;;;;15.40;92.50;98767.66;2722982;87;20161;-65
2021/05/13 17:04:37;;;;;;;;;;;;;;;15.26;93.29;98768.60;2722578;87;20217;-65
2021/05/13 17:08:37;;;;;;;;;;;;;;;15.17;94.01;98763.89;2721502;86;20161;-64
2021/05/13 17:12:39;;;;;;;;;;;;;;;15.10;94.57;98777.22;2721616;87;20189;-64
2021/05/13 17:16:41;;;;;;;;;;;;;;;14.98;94.97;98760.84;2720768;86;20240;-64
2021/05/13 17:20:42;;;;;;;;;;;;;;;14.89;94.99;98765.18;2720716;87;20185;-65
2021/05/13 17:24:44;;;;;;;;;;;;;;;14.78;95.46;98774.55;2720774;87;20185;-64
2021/05/13 17:28:46;;;;;;;;;;;;;;;14.71;95.59;98791.88;2721365;86;20200;-66
2021/05/13 17:32:47;;;;;;;;;;;;;;;14.75;95.62;98795.82;2722844;87;20304;-66
2021/05/13 17:36:49;;;;;;;;;;;;;;;14.76;95.62;98788.11;2721789;86;20506;-66
2021/05/13 17:40:50;;;;;;;;;;;;;;;14.75;95.51;98801.70;2733700;87;20165;-65
2021/05/13 17:44:53;;;;;;;;;;;;;;;14.73;95.12;98793.84;2732497;85;20513;-65
2021/05/13 17:48:54;;;;;;;;;;;;;;;14.67;95.32;98802.09;2730868;87;20188;-65
2021/05/13 17:52:57;;;;;;;;;;;;;;;14.57;95.66;98809.60;2731709;85;20165;-66
2021/05/13 17:57:02;;;;;;;;;;;;;;;14.52;95.90;98806.64;2730827;86;20205;-64
2021/05/13 18:01:03;;;;;;;;;;;;;;;14.48;96.10;98814.23;2730609;86;20204;-65
2021/05/13 18:05:07;;;;;;;;;;;;;;;14.40;96.43;98810.30;2730614;87;20213;-65
2021/05/13 18:09:10;;;;;;;;;;;;;;;14.37;96.30;98815.54;2730838;85;20157;-64
2021/05/13 18:13:11;;;;;;;;;;;;;;;14.33;96.45;98812.89;2731992;85;20557;-65
2021/05/13 18:17:13;;;;;;;;;;;;;;;14.28;96.72;98811.30;2710918;85;20188;-65
2021/05/13 18:21:15;;;;;;;;;;;;;;;14.25;96.86;98805.83;2722772;85;20520;-66
2021/05/13 18:25:17;;;;;;;;;;;;;;;14.19;97.36;98809.75;2731430;87;20233;-65
2021/05/13 18:29:18;;;;;;;;;;;;;;;14.12;97.61;98824.36;2731558;85;20181;-64
2021/05/13 18:33:21;;;;;;;;;;;;;;;14.11;97.85;98811.48;2731334;85;20193;-64
2021/05/13 18:37:23;;;;;;;;;;;;;;;14.10;97.92;98824.53;2729741;86;20177;-64
2021/05/13 18:41:25;;;;;;;;;;;;;;;14.09;98.01;98831.42;2720449;86;20173;-64
2021/05/13 18:45:27;;;;;;;;;;;;;;;14.08;98.04;98833.77;2720874;86;20201;-63
2021/05/13 18:49:29;;;;;;;;;;;;;;;14.03;98.33;98835.66;2722271;87;24276;-65
2021/05/13 18:53:31;;;;;;;;;;;;;;;14.05;98.23;98841.64;2720878;87;20189;-63
2021/05/13 18:57:32;;;;;;;;;;;;;;;14.00;98.38;98846.72;2720301;87;20157;-63
2021/05/13 19:01:34;;;;;;;;;;;;;;;14.00;98.66;98844.05;2720308;87;20217;-63
2021/05/13 19:05:35;;;;;;;;;;;;;;;14.03;98.74;98845.50;2721645;86;20178;-63
2021/05/13 19:09:41;;;;;;;;;;;;;;;13.95;99.12;98847.75;2718516;86;20173;-63
2021/05/13 19:13:40;;;;;;;;;;;;;;;13.92;99.10;98844.12;2722093;86;20177;-65
2021/05/13 19:17:43;;;;;;;;;;;;;;;13.80;99.78;98852.59;2714213;86;20174;-63
2021/05/13 19:21:44;;;;;;;;;;;;;;;13.75;100.00;98856.30;2719732;86;20150;-64
2021/05/13 19:25:48;;;;;;;;;;;;;;;13.71;100.00;98852.34;2712668;86;20213;-65
2021/05/13 19:38:18;;;;;;;;;;;;;;;13.74;100.00;98841.28;2715487;86;20216;-66
2021/05/13 19:42:20;;;;;;;;;;;;;;;13.73;99.97;98840.95;2716507;86;20166;-63
2021/05/13 19:46:21;;;;;;;;;;;;;;;13.76;99.94;98840.63;2716790;87;20185;-66
2021/05/13 19:50:23;;;;;;;;;;;;;;;13.80;99.57;98831.22;2725057;85;20493;-64
2021/05/13 19:54:25;;;;;;;;;;;;;;;13.83;99.22;98830.84;2733105;85;20161;-67
2021/05/13 19:58:26;;;;;;;;;;;;;;;13.80;99.01;98831.71;2731163;85;20185;-65
2021/05/13 20:02:33;;;;;;;;;;;;;;;13.80;98.85;98839.73;2732046;85;20169;-64
2021/05/13 20:06:44;;;;;;;;;;;;;;;13.79;98.63;98832.23;2731116;85;20177;-64
2021/05/13 20:10:49;;;;;;;;;;;;;;;13.77;98.53;98839.61;2730116;85;20157;-64
2021/05/13 20:14:44;;;;;;;;;;;;;;;13.77;98.65;98842.28;2732170;85;20177;-65
2021/05/13 20:18:48;;;;;;;;;;;;;;;13.75;98.63;98846.95;2732607;85;20196;-64
2021/05/13 20:22:55;;;;;;;;;;;;;;;13.75;98.55;98848.80;2728299;85;20441;-63
2021/05/13 20:27:01;;;;;;;;;;;;;;;13.76;98.18;98837.95;2732416;86;20177;-67
2021/05/13 20:31:01;;;;;;;;;;;;;;;13.76;98.12;98845.96;2731955;85;20153;-66
2021/05/13 20:35:03;;;;;;;;;;;;;;;13.73;98.14;98840.95;2732309;85;20180;-66
2021/05/13 20:39:08;;;;;;;;;;;;;;;13.75;98.12;98854.15;2712456;85;20553;-64
2021/05/13 20:43:11;;;;;;;;;;;;;;;13.78;97.87;98849.28;2682056;87;20229;-64
2021/05/13 20:47:13;;;;;;;;;;;;;;;13.78;97.71;98849.77;2681620;88;20177;-63
2021/05/13 20:59:50;;;;;;;;;;;;;;;13.71;97.40;98857.68;2685718;87;20233;-68
2021/05/13 21:03:52;;;;;;;;;;;;;;;13.71;97.31;98863.88;2716574;87;20194;-67
2021/05/13 21:08:15;;;;;;;;;;;;;;;13.73;97.32;98854.84;2678767;88;20146;-68
2021/05/13 21:21:01;;;;;;;;;;;;;;;13.71;97.37;98864.36;2684952;88;20182;-68
2021/05/13 21:29:09;;;;;;;;;;;;;;;13.64;96.93;98858.91;2675585;88;20177;-67
2021/05/13 21:33:11;;;;;;;;;;;;;;;13.64;97.02;98861.58;2684268;88;20173;-67
2021/05/13 21:37:12;;;;;;;;;;;;;;;13.70;96.99;98840.83;2684984;88;20189;-67
2021/05/13 21:41:14;;;;;;;;;;;;;;;13.67;97.12;98862.58;2684186;87;21073;-68